Aviation Digital Data Service (ADDS)

Output produced by TAFs form (1446 UTC 29 July 2014)
found at http://www.aviationweather.gov/adds/tafs/
 
KABE 291403Z 2914/3012 28005KT P6SM FEW027 
     TEMPO 2914/2916 BKN027 
     FM291600 28006KT P6SM SCT050 
     FM300200 VRB02KT P6SM SKC